sensor_id;sensor_type;location;lat;lon;timestamp;temperature;humidity
22436;DHT22;11385;50.822;4.324;2023-05-07T00:01:26;18.30;99.90
22436;DHT22;11385;50.822;4.324;2023-05-07T00:03:52;18.40;99.90
22436;DHT22;11385;50.822;4.324;2023-05-07T00:06:20;18.30;99.90
22436;DHT22;11385;50.822;4.324;2023-05-07T00:08:47;18.30;99.90
22436;DHT22;11385;50.822;4.324;2023-05-07T00:11:14;18.40;99.90
22436;DHT22;11385;50.822;4.324;2023-05-07T00:13:41;18.30;99.90
22436;DHT22;11385;50.822;4.324;2023-05-07T00:16:08;18.20;99.90
22436;DHT22;11385;50.822;4.324;2023-05-07T00:18:34;18.30;99.90
22436;DHT22;11385;50.822;4.324;2023-05-07T00:21:01;18.20;99.90
22436;DHT22;11385;50.822;4.324;2023-05-07T00:23:27;18.30;99.90
22436;DHT22;11385;50.822;4.324;2023-05-07T00:25:54;18.40;99.90
22436;DHT22;11385;50.822;4.324;2023-05-07T00:28:21;18.30;99.90
22436;DHT22;11385;50.822;4.324;2023-05-07T00:30:47;18.30;99.90
22436;DHT22;11385;50.822;4.324;2023-05-07T00:33:14;18.50;99.90
22436;DHT22;11385;50.822;4.324;2023-05-07T00:35:42;18.30;99.90
22436;DHT22;11385;50.822;4.324;2023-05-07T00:38:09;18.40;99.90
22436;DHT22;11385;50.822;4.324;2023-05-07T00:40:35;18.40;99.90
22436;DHT22;11385;50.822;4.324;2023-05-07T00:43:02;18.30;99.90
22436;DHT22;11385;50.822;4.324;2023-05-07T00:45:29;18.30;99.90
22436;DHT22;11385;50.822;4.324;2023-05-07T00:47:57;18.30;99.90
22436;DHT22;11385;50.822;4.324;2023-05-07T00:50:26;18.40;99.90
22436;DHT22;11385;50.822;4.324;2023-05-07T00:52:53;18.40;99.90
22436;DHT22;11385;50.822;4.324;2023-05-07T00:55:20;18.40;99.90
22436;DHT22;11385;50.822;4.324;2023-05-07T00:57:46;18.20;99.90
22436;DHT22;11385;50.822;4.324;2023-05-07T01:00:13;18.20;99.90
22436;DHT22;11385;50.822;4.324;2023-05-07T01:02:40;18.30;99.90
22436;DHT22;11385;50.822;4.324;2023-05-07T01:05:09;18.20;99.90
22436;DHT22;11385;50.822;4.324;2023-05-07T01:07:38;18.10;99.90
22436;DHT22;11385;50.822;4.324;2023-05-07T01:10:06;18.20;99.90
22436;DHT22;11385;50.822;4.324;2023-05-07T01:12:36;18.30;99.90
22436;DHT22;11385;50.822;4.324;2023-05-07T01:15:04;18.20;99.90
22436;DHT22;11385;50.822;4.324;2023-05-07T01:17:35;18.10;99.90
22436;DHT22;11385;50.822;4.324;2023-05-07T01:20:03;18.20;99.90
22436;DHT22;11385;50.822;4.324;2023-05-07T01:22:35;18.20;99.90
22436;DHT22;11385;50.822;4.324;2023-05-07T01:25:04;18.20;99.90
22436;DHT22;11385;50.822;4.324;2023-05-07T01:27:31;18.00;99.90
22436;DHT22;11385;50.822;4.324;2023-05-07T01:29:59;18.00;99.90
22436;DHT22;11385;50.822;4.324;2023-05-07T01:32:32;17.90;99.90
22436;DHT22;11385;50.822;4.324;2023-05-07T01:35:01;17.90;99.90
22436;DHT22;11385;50.822;4.324;2023-05-07T01:37:29;18.00;99.90
22436;DHT22;11385;50.822;4.324;2023-05-07T01:39:57;17.90;99.90
22436;DHT22;11385;50.822;4.324;2023-05-07T01:42:24;17.90;99.90
22436;DHT22;11385;50.822;4.324;2023-05-07T01:44:50;17.90;99.90
22436;DHT22;11385;50.822;4.324;2023-05-07T01:47:19;17.90;99.90
22436;DHT22;11385;50.822;4.324;2023-05-07T01:49:46;17.90;99.90
22436;DHT22;11385;50.822;4.324;2023-05-07T01:52:13;17.90;99.90
22436;DHT22;11385;50.822;4.324;2023-05-07T01:54:40;17.80;99.90
22436;DHT22;11385;50.822;4.324;2023-05-07T01:57:07;17.70;99.90
22436;DHT22;11385;50.822;4.324;2023-05-07T01:59:34;17.70;99.90
22436;DHT22;11385;50.822;4.324;2023-05-07T02:02:00;17.70;99.90
22436;DHT22;11385;50.822;4.324;2023-05-07T02:04:27;17.60;99.90
22436;DHT22;11385;50.822;4.324;2023-05-07T02:06:54;17.50;99.90
22436;DHT22;11385;50.822;4.324;2023-05-07T02:09:21;17.50;99.90
22436;DHT22;11385;50.822;4.324;2023-05-07T02:11:49;17.60;99.90
22436;DHT22;11385;50.822;4.324;2023-05-07T02:14:15;17.50;99.90
22436;DHT22;11385;50.822;4.324;2023-05-07T02:16:42;17.20;99.90
22436;DHT22;11385;50.822;4.324;2023-05-07T02:19:09;17.30;99.90
22436;DHT22;11385;50.822;4.324;2023-05-07T02:21:35;17.30;99.90
22436;DHT22;11385;50.822;4.324;2023-05-07T02:24:02;17.30;99.90
22436;DHT22;11385;50.822;4.324;2023-05-07T02:26:29;17.30;99.90
22436;DHT22;11385;50.822;4.324;2023-05-07T02:28:56;17.30;99.90
22436;DHT22;11385;50.822;4.324;2023-05-07T02:31:23;17.20;99.90
22436;DHT22;11385;50.822;4.324;2023-05-07T02:33:49;17.10;99.90
22436;DHT22;11385;50.822;4.324;2023-05-07T02:36:16;17.10;99.90
22436;DHT22;11385;50.822;4.324;2023-05-07T02:38:43;17.10;99.90
22436;DHT22;11385;50.822;4.324;2023-05-07T02:41:09;17.00;99.90
22436;DHT22;11385;50.822;4.324;2023-05-07T02:43:36;17.00;99.90
22436;DHT22;11385;50.822;4.324;2023-05-07T02:46:04;17.00;99.90
22436;DHT22;11385;50.822;4.324;2023-05-07T02:48:33;16.90;99.90
22436;DHT22;11385;50.822;4.324;2023-05-07T02:51:00;17.00;99.90
22436;DHT22;11385;50.822;4.324;2023-05-07T02:53:27;17.10;99.90
22436;DHT22;11385;50.822;4.324;2023-05-07T02:55:57;17.10;99.90
22436;DHT22;11385;50.822;4.324;2023-05-07T02:58:24;17.10;99.90
22436;DHT22;11385;50.822;4.324;2023-05-07T03:00:51;17.00;99.90
22436;DHT22;11385;50.822;4.324;2023-05-07T03:03:18;17.00;99.90
22436;DHT22;11385;50.822;4.324;2023-05-07T03:05:44;16.90;99.90
22436;DHT22;11385;50.822;4.324;2023-05-07T03:08:11;17.00;99.90
22436;DHT22;11385;50.822;4.324;2023-05-07T03:10:38;17.00;99.90
22436;DHT22;11385;50.822;4.324;2023-05-07T03:13:05;16.90;99.90
22436;DHT22;11385;50.822;4.324;2023-05-07T03:15:31;17.00;99.90
22436;DHT22;11385;50.822;4.324;2023-05-07T03:17:58;17.10;99.90
22436;DHT22;11385;50.822;4.324;2023-05-07T03:20:25;17.10;99.90
22436;DHT22;11385;50.822;4.324;2023-05-07T03:22:51;17.10;99.90
22436;DHT22;11385;50.822;4.324;2023-05-07T03:25:18;17.00;99.90
22436;DHT22;11385;50.822;4.324;2023-05-07T03:27:45;17.00;99.90
22436;DHT22;11385;50.822;4.324;2023-05-07T03:30:12;17.00;99.90
22436;DHT22;11385;50.822;4.324;2023-05-07T03:32:39;17.00;99.90
22436;DHT22;11385;50.822;4.324;2023-05-07T03:35:06;17.10;99.90
22436;DHT22;11385;50.822;4.324;2023-05-07T03:37:33;17.20;99.90
22436;DHT22;11385;50.822;4.324;2023-05-07T03:40:00;17.20;99.90
22436;DHT22;11385;50.822;4.324;2023-05-07T03:42:28;17.10;99.90
22436;DHT22;11385;50.822;4.324;2023-05-07T03:44:55;17.20;99.90
22436;DHT22;11385;50.822;4.324;2023-05-07T03:47:21;17.10;99.90
22436;DHT22;11385;50.822;4.324;2023-05-07T03:49:48;17.10;99.90
22436;DHT22;11385;50.822;4.324;2023-05-07T03:52:16;17.10;99.90
22436;DHT22;11385;50.822;4.324;2023-05-07T03:54:45;17.20;99.90
22436;DHT22;11385;50.822;4.324;2023-05-07T03:57:11;17.20;99.90
22436;DHT22;11385;50.822;4.324;2023-05-07T03:59:38;17.10;99.90
22436;DHT22;11385;50.822;4.324;2023-05-07T04:02:04;17.20;99.90
22436;DHT22;11385;50.822;4.324;2023-05-07T04:04:31;17.30;99.90
22436;DHT22;11385;50.822;4.324;2023-05-07T04:06:58;17.20;99.90
22436;DHT22;11385;50.822;4.324;2023-05-07T04:09:26;17.40;99.90
22436;DHT22;11385;50.822;4.324;2023-05-07T04:11:53;17.30;99.90
22436;DHT22;11385;50.822;4.324;2023-05-07T04:14:21;17.20;99.90
22436;DHT22;11385;50.822;4.324;2023-05-07T04:16:48;17.30;99.90
22436;DHT22;11385;50.822;4.324;2023-05-07T04:19:15;17.30;99.90
22436;DHT22;11385;50.822;4.324;2023-05-07T04:21:41;17.30;99.90
22436;DHT22;11385;50.822;4.324;2023-05-07T04:24:08;17.30;99.90
22436;DHT22;11385;50.822;4.324;2023-05-07T04:26:35;17.40;99.90
22436;DHT22;11385;50.822;4.324;2023-05-07T04:29:02;17.40;99.90
22436;DHT22;11385;50.822;4.324;2023-05-07T04:36:58;17.50;99.90
22436;DHT22;11385;50.822;4.324;2023-05-07T04:39:25;17.50;99.90
22436;DHT22;11385;50.822;4.324;2023-05-07T04:41:52;17.50;99.90
22436;DHT22;11385;50.822;4.324;2023-05-07T04:44:18;17.40;99.90
22436;DHT22;11385;50.822;4.324;2023-05-07T04:46:45;17.40;99.90
22436;DHT22;11385;50.822;4.324;2023-05-07T04:49:12;17.40;99.90
22436;DHT22;11385;50.822;4.324;2023-05-07T04:51:39;17.40;99.90
22436;DHT22;11385;50.822;4.324;2023-05-07T04:54:07;17.20;99.90
22436;DHT22;11385;50.822;4.324;2023-05-07T04:56:34;17.40;99.90
22436;DHT22;11385;50.822;4.324;2023-05-07T04:59:01;17.40;99.90
22436;DHT22;11385;50.822;4.324;2023-05-07T05:01:27;17.50;99.90
22436;DHT22;11385;50.822;4.324;2023-05-07T05:03:54;17.50;99.90
22436;DHT22;11385;50.822;4.324;2023-05-07T05:06:21;17.50;99.90
22436;DHT22;11385;50.822;4.324;2023-05-07T05:08:48;17.60;99.90
22436;DHT22;11385;50.822;4.324;2023-05-07T05:11:14;17.70;99.90
22436;DHT22;11385;50.822;4.324;2023-05-07T05:13:41;17.80;99.90
22436;DHT22;11385;50.822;4.324;2023-05-07T05:16:08;18.00;99.90
22436;DHT22;11385;50.822;4.324;2023-05-07T05:18:35;17.90;99.90
22436;DHT22;11385;50.822;4.324;2023-05-07T05:21:01;17.90;99.90
22436;DHT22;11385;50.822;4.324;2023-05-07T05:23:28;18.00;99.90
22436;DHT22;11385;50.822;4.324;2023-05-07T05:25:56;18.00;99.90
22436;DHT22;11385;50.822;4.324;2023-05-07T05:28:23;18.20;99.90
22436;DHT22;11385;50.822;4.324;2023-05-07T05:30:50;18.20;99.90
22436;DHT22;11385;50.822;4.324;2023-05-07T05:33:17;18.20;99.90
22436;DHT22;11385;50.822;4.324;2023-05-07T05:35:44;18.20;99.90
22436;DHT22;11385;50.822;4.324;2023-05-07T05:38:10;18.30;99.90
22436;DHT22;11385;50.822;4.324;2023-05-07T05:40:37;18.40;99.90
22436;DHT22;11385;50.822;4.324;2023-05-07T05:43:04;18.30;99.90
22436;DHT22;11385;50.822;4.324;2023-05-07T05:45:30;18.40;99.90
22436;DHT22;11385;50.822;4.324;2023-05-07T05:47:58;18.40;99.90
22436;DHT22;11385;50.822;4.324;2023-05-07T05:50:25;18.20;99.90
22436;DHT22;11385;50.822;4.324;2023-05-07T05:52:51;17.80;99.90
22436;DHT22;11385;50.822;4.324;2023-05-07T05:55:18;17.70;99.90
22436;DHT22;11385;50.822;4.324;2023-05-07T05:57:47;17.50;99.90
22436;DHT22;11385;50.822;4.324;2023-05-07T06:00:14;17.40;99.90
22436;DHT22;11385;50.822;4.324;2023-05-07T06:02:42;17.50;99.90
22436;DHT22;11385;50.822;4.324;2023-05-07T06:05:09;17.80;99.90
22436;DHT22;11385;50.822;4.324;2023-05-07T06:07:35;17.80;99.90
22436;DHT22;11385;50.822;4.324;2023-05-07T06:10:02;17.70;99.90
22436;DHT22;11385;50.822;4.324;2023-05-07T06:12:29;17.80;99.90
22436;DHT22;11385;50.822;4.324;2023-05-07T06:14:55;17.60;99.90
22436;DHT22;11385;50.822;4.324;2023-05-07T06:17:23;17.70;99.90
22436;DHT22;11385;50.822;4.324;2023-05-07T06:19:51;17.50;99.90
22436;DHT22;11385;50.822;4.324;2023-05-07T06:22:18;17.50;99.90
22436;DHT22;11385;50.822;4.324;2023-05-07T06:24:45;17.20;99.90
22436;DHT22;11385;50.822;4.324;2023-05-07T06:27:12;17.40;99.90
22436;DHT22;11385;50.822;4.324;2023-05-07T06:29:38;17.40;99.90
22436;DHT22;11385;50.822;4.324;2023-05-07T06:32:08;17.50;99.90
22436;DHT22;11385;50.822;4.324;2023-05-07T06:34:36;17.60;99.90
22436;DHT22;11385;50.822;4.324;2023-05-07T06:37:03;17.60;99.90
22436;DHT22;11385;50.822;4.324;2023-05-07T06:39:30;17.70;99.90
22436;DHT22;11385;50.822;4.324;2023-05-07T06:41:56;17.60;99.90
22436;DHT22;11385;50.822;4.324;2023-05-07T06:44:24;17.40;99.90
22436;DHT22;11385;50.822;4.324;2023-05-07T06:46:51;17.10;99.90
22436;DHT22;11385;50.822;4.324;2023-05-07T06:49:17;17.10;99.90
22436;DHT22;11385;50.822;4.324;2023-05-07T06:51:44;17.10;99.90
22436;DHT22;11385;50.822;4.324;2023-05-07T06:54:12;17.20;99.90
22436;DHT22;11385;50.822;4.324;2023-05-07T06:56:38;17.00;99.90
22436;DHT22;11385;50.822;4.324;2023-05-07T06:59:06;16.70;99.90
22436;DHT22;11385;50.822;4.324;2023-05-07T07:01:33;16.70;99.90
22436;DHT22;11385;50.822;4.324;2023-05-07T07:04:00;16.80;99.90
22436;DHT22;11385;50.822;4.324;2023-05-07T07:06:26;16.90;99.90
22436;DHT22;11385;50.822;4.324;2023-05-07T07:08:55;16.90;99.90
22436;DHT22;11385;50.822;4.324;2023-05-07T07:11:21;16.90;99.90
22436;DHT22;11385;50.822;4.324;2023-05-07T07:13:48;17.00;99.90
22436;DHT22;11385;50.822;4.324;2023-05-07T07:16:15;16.90;99.90
22436;DHT22;11385;50.822;4.324;2023-05-07T07:18:49;16.90;99.90
22436;DHT22;11385;50.822;4.324;2023-05-07T07:21:16;16.90;99.90
22436;DHT22;11385;50.822;4.324;2023-05-07T07:23:42;16.80;99.90
22436;DHT22;11385;50.822;4.324;2023-05-07T07:26:10;16.70;99.90
22436;DHT22;11385;50.822;4.324;2023-05-07T07:28:44;16.80;99.90
22436;DHT22;11385;50.822;4.324;2023-05-07T07:31:12;16.80;99.90
22436;DHT22;11385;50.822;4.324;2023-05-07T07:33:39;16.60;99.90
22436;DHT22;11385;50.822;4.324;2023-05-07T07:36:06;16.60;99.90
22436;DHT22;11385;50.822;4.324;2023-05-07T07:38:33;16.60;99.90
22436;DHT22;11385;50.822;4.324;2023-05-07T07:41:01;16.70;99.90
22436;DHT22;11385;50.822;4.324;2023-05-07T07:43:27;16.70;99.90
22436;DHT22;11385;50.822;4.324;2023-05-07T07:45:54;16.80;99.90
22436;DHT22;11385;50.822;4.324;2023-05-07T07:48:21;16.90;99.90
22436;DHT22;11385;50.822;4.324;2023-05-07T07:50:49;16.90;99.90
22436;DHT22;11385;50.822;4.324;2023-05-07T07:53:17;16.80;99.90
22436;DHT22;11385;50.822;4.324;2023-05-07T07:55:44;16.60;99.90
22436;DHT22;11385;50.822;4.324;2023-05-07T07:58:11;16.60;99.90
22436;DHT22;11385;50.822;4.324;2023-05-07T08:00:38;16.50;99.90
22436;DHT22;11385;50.822;4.324;2023-05-07T08:03:04;16.40;99.90
22436;DHT22;11385;50.822;4.324;2023-05-07T08:05:32;16.40;99.90
22436;DHT22;11385;50.822;4.324;2023-05-07T08:07:59;16.60;99.90
22436;DHT22;11385;50.822;4.324;2023-05-07T08:10:25;16.60;99.90
22436;DHT22;11385;50.822;4.324;2023-05-07T08:12:52;16.60;99.90
22436;DHT22;11385;50.822;4.324;2023-05-07T08:15:19;16.40;99.90
22436;DHT22;11385;50.822;4.324;2023-05-07T08:17:46;16.40;99.90
22436;DHT22;11385;50.822;4.324;2023-05-07T08:20:12;16.50;99.90
22436;DHT22;11385;50.822;4.324;2023-05-07T08:22:39;16.60;99.90
22436;DHT22;11385;50.822;4.324;2023-05-07T08:25:06;16.80;99.90
22436;DHT22;11385;50.822;4.324;2023-05-07T08:27:33;16.80;99.90
22436;DHT22;11385;50.822;4.324;2023-05-07T08:30:00;16.70;99.90
22436;DHT22;11385;50.822;4.324;2023-05-07T08:32:27;16.70;99.90
22436;DHT22;11385;50.822;4.324;2023-05-07T08:34:54;16.60;99.90
22436;DHT22;11385;50.822;4.324;2023-05-07T08:37:21;16.60;99.90
22436;DHT22;11385;50.822;4.324;2023-05-07T08:39:50;16.60;99.90
22436;DHT22;11385;50.822;4.324;2023-05-07T08:42:17;16.60;99.90
22436;DHT22;11385;50.822;4.324;2023-05-07T08:44:45;16.70;99.90
22436;DHT22;11385;50.822;4.324;2023-05-07T08:47:13;16.80;99.90
22436;DHT22;11385;50.822;4.324;2023-05-07T08:49:40;16.60;99.90
22436;DHT22;11385;50.822;4.324;2023-05-07T08:52:07;16.40;99.90
22436;DHT22;11385;50.822;4.324;2023-05-07T08:54:34;16.70;99.90
22436;DHT22;11385;50.822;4.324;2023-05-07T08:57:02;16.70;99.90
22436;DHT22;11385;50.822;4.324;2023-05-07T08:59:30;16.70;99.90
22436;DHT22;11385;50.822;4.324;2023-05-07T09:01:57;16.40;99.90
22436;DHT22;11385;50.822;4.324;2023-05-07T09:04:23;16.60;99.90
22436;DHT22;11385;50.822;4.324;2023-05-07T09:06:50;16.70;99.90
22436;DHT22;11385;50.822;4.324;2023-05-07T09:09:17;16.90;99.90
22436;DHT22;11385;50.822;4.324;2023-05-07T09:11:45;17.00;99.90
22436;DHT22;11385;50.822;4.324;2023-05-07T09:14:12;17.10;99.90
22436;DHT22;11385;50.822;4.324;2023-05-07T09:16:39;17.20;99.90
22436;DHT22;11385;50.822;4.324;2023-05-07T09:19:05;17.40;99.90
22436;DHT22;11385;50.822;4.324;2023-05-07T09:21:32;17.50;99.90
22436;DHT22;11385;50.822;4.324;2023-05-07T09:23:59;17.50;99.90
22436;DHT22;11385;50.822;4.324;2023-05-07T09:26:26;17.70;99.90
22436;DHT22;11385;50.822;4.324;2023-05-07T09:28:54;17.60;99.90
22436;DHT22;11385;50.822;4.324;2023-05-07T09:31:20;17.70;99.90
22436;DHT22;11385;50.822;4.324;2023-05-07T09:33:49;17.60;99.90
22436;DHT22;11385;50.822;4.324;2023-05-07T09:36:15;17.50;99.90
22436;DHT22;11385;50.822;4.324;2023-05-07T09:38:42;17.50;99.90
22436;DHT22;11385;50.822;4.324;2023-05-07T09:41:10;17.70;99.90
22436;DHT22;11385;50.822;4.324;2023-05-07T09:43:38;17.90;99.90
22436;DHT22;11385;50.822;4.324;2023-05-07T09:46:12;18.00;99.90
22436;DHT22;11385;50.822;4.324;2023-05-07T09:48:37;18.00;99.90
22436;DHT22;11385;50.822;4.324;2023-05-07T09:51:09;18.00;99.90
22436;DHT22;11385;50.822;4.324;2023-05-07T09:53:35;17.80;99.90
22436;DHT22;11385;50.822;4.324;2023-05-07T09:56:03;17.80;99.90
22436;DHT22;11385;50.822;4.324;2023-05-07T09:58:30;17.80;99.90
22436;DHT22;11385;50.822;4.324;2023-05-07T10:00:58;17.80;99.90
22436;DHT22;11385;50.822;4.324;2023-05-07T10:03:27;17.80;99.90
22436;DHT22;11385;50.822;4.324;2023-05-07T10:05:55;17.80;99.90
22436;DHT22;11385;50.822;4.324;2023-05-07T10:08:22;17.80;99.90
22436;DHT22;11385;50.822;4.324;2023-05-07T10:10:49;17.80;99.90
22436;DHT22;11385;50.822;4.324;2023-05-07T10:13:18;17.60;99.90
22436;DHT22;11385;50.822;4.324;2023-05-07T10:15:45;17.70;99.90
22436;DHT22;11385;50.822;4.324;2023-05-07T10:18:13;17.70;99.90
22436;DHT22;11385;50.822;4.324;2023-05-07T10:20:42;17.60;99.90
22436;DHT22;11385;50.822;4.324;2023-05-07T10:23:12;17.80;99.90
22436;DHT22;11385;50.822;4.324;2023-05-07T10:25:40;17.70;99.90
22436;DHT22;11385;50.822;4.324;2023-05-07T10:28:10;17.70;99.90
22436;DHT22;11385;50.822;4.324;2023-05-07T10:30:48;17.70;99.90
22436;DHT22;11385;50.822;4.324;2023-05-07T10:33:15;17.80;99.90
22436;DHT22;11385;50.822;4.324;2023-05-07T10:35:45;17.90;99.90
22436;DHT22;11385;50.822;4.324;2023-05-07T10:38:13;17.80;99.90
22436;DHT22;11385;50.822;4.324;2023-05-07T10:40:40;17.80;99.90
22436;DHT22;11385;50.822;4.324;2023-05-07T10:43:07;18.00;99.90
22436;DHT22;11385;50.822;4.324;2023-05-07T10:45:33;17.80;99.90
22436;DHT22;11385;50.822;4.324;2023-05-07T10:48:06;17.90;99.90
22436;DHT22;11385;50.822;4.324;2023-05-07T10:50:34;17.90;99.90
22436;DHT22;11385;50.822;4.324;2023-05-07T10:55:39;17.90;99.90
22436;DHT22;11385;50.822;4.324;2023-05-07T10:58:24;18.10;99.90
22436;DHT22;11385;50.822;4.324;2023-05-07T11:00:57;18.20;99.90
22436;DHT22;11385;50.822;4.324;2023-05-07T11:03:25;18.20;99.90
22436;DHT22;11385;50.822;4.324;2023-05-07T11:08:57;18.30;99.90
22436;DHT22;11385;50.822;4.324;2023-05-07T11:14:02;18.40;99.90
22436;DHT22;11385;50.822;4.324;2023-05-07T11:16:31;18.40;99.90
22436;DHT22;11385;50.822;4.324;2023-05-07T11:18:59;18.50;99.90
22436;DHT22;11385;50.822;4.324;2023-05-07T11:21:34;18.70;99.90
22436;DHT22;11385;50.822;4.324;2023-05-07T11:24:03;18.60;99.90
22436;DHT22;11385;50.822;4.324;2023-05-07T11:26:41;18.70;99.90
22436;DHT22;11385;50.822;4.324;2023-05-07T11:29:00;18.70;99.90
22436;DHT22;11385;50.822;4.324;2023-05-07T11:31:27;18.70;99.90
22436;DHT22;11385;50.822;4.324;2023-05-07T11:33:55;18.80;99.90
22436;DHT22;11385;50.822;4.324;2023-05-07T11:36:23;18.80;99.90
22436;DHT22;11385;50.822;4.324;2023-05-07T11:38:50;18.80;99.90
22436;DHT22;11385;50.822;4.324;2023-05-07T11:41:17;18.90;99.90
22436;DHT22;11385;50.822;4.324;2023-05-07T11:44:00;18.90;99.90
22436;DHT22;11385;50.822;4.324;2023-05-07T11:46:27;19.00;99.90
22436;DHT22;11385;50.822;4.324;2023-05-07T11:48:55;18.80;99.90
22436;DHT22;11385;50.822;4.324;2023-05-07T11:51:24;18.80;99.90
22436;DHT22;11385;50.822;4.324;2023-05-07T11:53:53;18.90;99.90
22436;DHT22;11385;50.822;4.324;2023-05-07T11:56:20;19.00;99.90
22436;DHT22;11385;50.822;4.324;2023-05-07T11:58:48;19.00;99.90
22436;DHT22;11385;50.822;4.324;2023-05-07T12:01:15;18.90;99.90
22436;DHT22;11385;50.822;4.324;2023-05-07T12:03:43;19.00;99.90
22436;DHT22;11385;50.822;4.324;2023-05-07T12:06:12;19.10;99.90
22436;DHT22;11385;50.822;4.324;2023-05-07T12:08:41;19.10;99.90
22436;DHT22;11385;50.822;4.324;2023-05-07T12:11:13;19.20;99.90
22436;DHT22;11385;50.822;4.324;2023-05-07T12:13:38;19.30;99.90
22436;DHT22;11385;50.822;4.324;2023-05-07T12:16:06;19.30;99.90
22436;DHT22;11385;50.822;4.324;2023-05-07T12:18:33;19.20;99.90
22436;DHT22;11385;50.822;4.324;2023-05-07T12:21:01;19.20;99.90
22436;DHT22;11385;50.822;4.324;2023-05-07T12:23:28;19.00;99.90
22436;DHT22;11385;50.822;4.324;2023-05-07T12:25:55;19.20;99.90
22436;DHT22;11385;50.822;4.324;2023-05-07T12:28:22;19.20;99.90
22436;DHT22;11385;50.822;4.324;2023-05-07T12:30:51;19.50;99.90
22436;DHT22;11385;50.822;4.324;2023-05-07T12:33:19;19.40;99.90
22436;DHT22;11385;50.822;4.324;2023-05-07T12:35:47;19.60;99.90
22436;DHT22;11385;50.822;4.324;2023-05-07T12:38:16;19.60;99.90
22436;DHT22;11385;50.822;4.324;2023-05-07T12:40:46;19.60;99.90
22436;DHT22;11385;50.822;4.324;2023-05-07T12:43:20;19.60;99.90
22436;DHT22;11385;50.822;4.324;2023-05-07T12:45:50;20.00;99.90
22436;DHT22;11385;50.822;4.324;2023-05-07T12:48:17;20.30;99.90
22436;DHT22;11385;50.822;4.324;2023-05-07T12:50:48;20.30;99.90
22436;DHT22;11385;50.822;4.324;2023-05-07T12:53:14;20.40;99.90
22436;DHT22;11385;50.822;4.324;2023-05-07T12:55:44;20.20;99.90
22436;DHT22;11385;50.822;4.324;2023-05-07T12:58:16;20.20;99.90
22436;DHT22;11385;50.822;4.324;2023-05-07T13:00:43;20.50;99.90
22436;DHT22;11385;50.822;4.324;2023-05-07T13:03:10;20.50;99.90
22436;DHT22;11385;50.822;4.324;2023-05-07T13:05:38;20.60;99.90
22436;DHT22;11385;50.822;4.324;2023-05-07T13:08:06;20.50;99.90
22436;DHT22;11385;50.822;4.324;2023-05-07T13:10:33;20.20;99.90
22436;DHT22;11385;50.822;4.324;2023-05-07T13:13:00;20.30;99.90
22436;DHT22;11385;50.822;4.324;2023-05-07T13:15:27;20.30;99.90
22436;DHT22;11385;50.822;4.324;2023-05-07T13:17:54;20.20;99.90
22436;DHT22;11385;50.822;4.324;2023-05-07T13:20:21;20.20;99.90
22436;DHT22;11385;50.822;4.324;2023-05-07T13:22:47;20.30;99.90
22436;DHT22;11385;50.822;4.324;2023-05-07T13:25:14;20.10;99.90
22436;DHT22;11385;50.822;4.324;2023-05-07T13:27:41;20.10;99.90
22436;DHT22;11385;50.822;4.324;2023-05-07T13:30:08;20.10;99.90
22436;DHT22;11385;50.822;4.324;2023-05-07T13:32:34;20.10;99.90
22436;DHT22;11385;50.822;4.324;2023-05-07T13:35:01;20.30;99.90
22436;DHT22;11385;50.822;4.324;2023-05-07T13:37:28;20.20;99.90
22436;DHT22;11385;50.822;4.324;2023-05-07T13:39:54;20.20;99.90
22436;DHT22;11385;50.822;4.324;2023-05-07T13:42:21;20.30;99.90
22436;DHT22;11385;50.822;4.324;2023-05-07T13:44:47;20.40;99.90
22436;DHT22;11385;50.822;4.324;2023-05-07T13:47:14;19.90;99.90
22436;DHT22;11385;50.822;4.324;2023-05-07T13:49:41;20.20;99.90
22436;DHT22;11385;50.822;4.324;2023-05-07T13:52:07;20.20;99.90
22436;DHT22;11385;50.822;4.324;2023-05-07T13:54:34;20.10;99.90
22436;DHT22;11385;50.822;4.324;2023-05-07T13:57:00;20.20;99.90
22436;DHT22;11385;50.822;4.324;2023-05-07T13:59:27;20.10;99.90
22436;DHT22;11385;50.822;4.324;2023-05-07T14:01:54;20.30;99.90
22436;DHT22;11385;50.822;4.324;2023-05-07T14:04:21;20.50;99.90
22436;DHT22;11385;50.822;4.324;2023-05-07T14:06:47;20.50;99.90
22436;DHT22;11385;50.822;4.324;2023-05-07T14:09:14;20.50;99.90
22436;DHT22;11385;50.822;4.324;2023-05-07T14:11:41;20.20;99.90
22436;DHT22;11385;50.822;4.324;2023-05-07T14:14:08;20.00;99.90
22436;DHT22;11385;50.822;4.324;2023-05-07T14:16:36;20.30;99.90
22436;DHT22;11385;50.822;4.324;2023-05-07T14:19:03;20.30;99.90
22436;DHT22;11385;50.822;4.324;2023-05-07T14:21:30;20.30;99.90
22436;DHT22;11385;50.822;4.324;2023-05-07T14:23:57;20.30;99.90
22436;DHT22;11385;50.822;4.324;2023-05-07T14:26:23;20.20;99.90
22436;DHT22;11385;50.822;4.324;2023-05-07T14:28:52;20.40;99.90
22436;DHT22;11385;50.822;4.324;2023-05-07T14:31:21;20.50;99.90
22436;DHT22;11385;50.822;4.324;2023-05-07T14:33:47;20.40;99.90
22436;DHT22;11385;50.822;4.324;2023-05-07T14:36:16;20.50;99.90
22436;DHT22;11385;50.822;4.324;2023-05-07T14:38:43;20.00;99.90
22436;DHT22;11385;50.822;4.324;2023-05-07T14:41:10;20.10;99.90
22436;DHT22;11385;50.822;4.324;2023-05-07T14:43:36;20.30;99.90
22436;DHT22;11385;50.822;4.324;2023-05-07T14:46:03;20.20;99.90
22436;DHT22;11385;50.822;4.324;2023-05-07T14:48:30;20.20;99.90
22436;DHT22;11385;50.822;4.324;2023-05-07T14:50:56;20.40;99.90
22436;DHT22;11385;50.822;4.324;2023-05-07T14:53:23;20.70;99.90
22436;DHT22;11385;50.822;4.324;2023-05-07T14:55:50;20.60;99.90
22436;DHT22;11385;50.822;4.324;2023-05-07T14:58:16;20.60;99.90
22436;DHT22;11385;50.822;4.324;2023-05-07T15:00:43;20.70;99.90
22436;DHT22;11385;50.822;4.324;2023-05-07T15:03:10;20.60;99.90
22436;DHT22;11385;50.822;4.324;2023-05-07T15:05:37;20.80;99.90
22436;DHT22;11385;50.822;4.324;2023-05-07T15:08:05;20.80;99.90
22436;DHT22;11385;50.822;4.324;2023-05-07T15:10:35;20.80;99.90
22436;DHT22;11385;50.822;4.324;2023-05-07T15:13:05;20.90;99.90
22436;DHT22;11385;50.822;4.324;2023-05-07T15:15:32;20.80;99.90
22436;DHT22;11385;50.822;4.324;2023-05-07T15:17:58;20.70;99.90
22436;DHT22;11385;50.822;4.324;2023-05-07T15:20:26;20.70;99.90
22436;DHT22;11385;50.822;4.324;2023-05-07T15:22:53;20.70;99.90
22436;DHT22;11385;50.822;4.324;2023-05-07T15:25:19;20.70;99.90
22436;DHT22;11385;50.822;4.324;2023-05-07T15:27:46;20.50;99.90
22436;DHT22;11385;50.822;4.324;2023-05-07T15:30:13;20.50;99.90
22436;DHT22;11385;50.822;4.324;2023-05-07T15:32:41;20.70;99.90
22436;DHT22;11385;50.822;4.324;2023-05-07T15:35:09;20.90;99.90
22436;DHT22;11385;50.822;4.324;2023-05-07T15:37:35;21.00;99.90
22436;DHT22;11385;50.822;4.324;2023-05-07T15:40:02;20.90;99.90
22436;DHT22;11385;50.822;4.324;2023-05-07T15:42:30;20.80;99.90
22436;DHT22;11385;50.822;4.324;2023-05-07T15:44:57;20.90;99.90